createdAt,value
2019-04-01T09:17:58.728Z,18720.00
2019-04-01T09:18:58.962Z,17792.00
2019-04-01T09:19:59.090Z,16048.00
2019-04-01T09:21:00.362Z,15824.00
2019-04-01T09:22:00.568Z,17280.00
2019-04-01T09:23:00.772Z,17152.00
2019-04-01T09:24:01.007Z,16448.00
2019-04-01T09:25:01.236Z,14456.00
2019-04-01T09:26:01.335Z,13176.00
2019-04-01T09:27:02.567Z,12736.00
2019-04-01T09:28:01.789Z,14160.00
2019-04-01T09:29:02.035Z,15164.00
2019-04-01T09:30:02.180Z,16000.00
2019-04-01T09:31:02.304Z,15904.00
2019-04-01T09:32:02.968Z,15244.00
2019-04-01T09:33:02.572Z,13576.00
2019-04-01T09:34:02.714Z,12204.00
2019-04-01T09:35:02.830Z,11540.00
2019-04-01T09:36:03.092Z,11228.00
2019-04-01T09:37:03.970Z,10032.00
2019-04-01T09:38:03.420Z,10160.00
2019-04-01T09:39:03.973Z,10764.00
2019-04-01T09:40:03.847Z,11980.00
2019-04-01T09:41:04.967Z,11764.00
2019-04-01T09:42:04.295Z,12048.00
2019-04-01T09:43:04.421Z,13032.00
2019-04-01T09:44:04.675Z,12176.00
2019-04-01T09:45:04.804Z,12496.00
2019-04-01T09:46:04.947Z,13200.00
2019-04-01T09:47:05.981Z,13096.00
2019-04-01T09:48:05.200Z,12972.00
2019-04-01T09:49:05.325Z,12764.00
2019-04-01T09:50:05.558Z,12568.00
2019-04-01T09:51:05.980Z,12380.00
2019-04-01T09:52:06.888Z,12184.00
2019-04-01T09:53:05.989Z,12008.00
2019-04-01T09:54:06.983Z,11836.00
2019-04-01T09:55:06.647Z,11456.00
2019-04-01T09:56:06.585Z,10768.00
2019-04-01T09:57:17.164Z,10988.00
2019-04-01T09:58:08.897Z,11272.00
2019-04-01T09:59:07.106Z,11148.00
2019-04-01T10:00:07.965Z,11012.00
2019-04-01T10:01:07.459Z,11176.00
2019-04-01T10:02:08.485Z,10772.00
2019-04-01T10:03:07.863Z,10668.00
2019-04-01T10:04:08.010Z,10540.00
2019-04-01T10:05:08.145Z,10468.00
2019-04-01T10:06:10.448Z,10380.00
2019-04-01T10:07:09.490Z,10232.00
2019-04-01T10:08:09.010Z,10016.00
2019-04-01T10:09:08.879Z,10020.00
2019-04-01T10:10:09.975Z,10176.00
2019-04-01T10:11:12.470Z,9792.00
2019-04-01T10:12:09.329Z,9776.00
2019-04-01T10:13:09.504Z,9016.00
2019-04-01T10:14:09.666Z,7820.00
2019-04-01T10:15:09.792Z,7332.00
2019-04-01T10:16:09.923Z,7456.00
2019-04-01T10:17:10.969Z,8212.00
2019-04-01T10:18:10.352Z,8816.00
2019-04-01T10:19:10.524Z,8912.00
2019-04-01T10:20:10.652Z,8800.00
2019-04-01T10:21:10.807Z,8868.00
2019-04-01T10:22:10.946Z,8884.00
2019-04-01T10:23:11.159Z,8660.00
2019-04-01T10:24:11.312Z,8452.00
2019-04-01T10:25:11.491Z,8364.00
2019-04-01T10:26:11.656Z,8160.00
2019-04-01T10:27:12.487Z,8116.00
2019-04-01T10:28:12.501Z,7872.00
2019-04-01T10:29:12.995Z,8028.00
2019-04-01T10:30:12.385Z,7900.00
2019-04-01T10:31:12.514Z,8092.00
2019-04-01T10:32:12.778Z,8252.00
2019-04-01T10:33:13.508Z,8216.00
2019-04-01T10:34:13.129Z,8252.00
2019-04-01T10:35:13.274Z,8040.00
2019-04-01T10:36:13.523Z,8000.00
2019-04-01T10:37:13.789Z,7932.00
2019-04-01T10:38:14.488Z,7856.00
2019-04-01T10:39:13.955Z,7764.00
2019-04-01T10:40:14.110Z,7676.00
2019-04-01T10:41:14.514Z,7560.00
2019-04-01T10:42:14.404Z,7612.00
2019-04-01T10:43:15.491Z,7596.00
2019-04-01T10:44:14.717Z,7572.00
2019-04-01T10:45:15.495Z,7584.00
2019-04-01T10:46:15.491Z,7568.00
2019-04-01T10:47:15.539Z,7540.00
2019-04-01T10:48:15.436Z,7536.00
2019-04-01T10:49:16.524Z,7816.00
2019-04-01T10:50:15.678Z,7496.00
2019-04-01T10:51:16.569Z,7432.00
2019-04-01T10:52:16.160Z,7400.00
2019-04-01T10:53:16.345Z,7328.00
2019-04-01T10:54:16.489Z,7296.00
2019-04-01T10:55:16.668Z,7292.00
2019-04-01T10:56:16.738Z,7244.00
2019-04-01T10:57:16.882Z,7292.00
2019-04-01T10:58:17.101Z,7272.00
2019-04-01T10:59:17.249Z,7136.00
2019-04-01T11:00:17.395Z,7060.00
2019-04-01T11:01:18.516Z,6996.00
2019-04-01T11:02:39.567Z,6972.00
2019-04-01T11:03:18.003Z,6900.00
2019-04-01T11:04:19.012Z,6852.00
2019-04-01T11:29:08.970Z,5484.00
2019-04-01T11:29:54.599Z,5492.00
2019-04-01T11:30:54.774Z,5476.00
2019-04-01T11:31:54.891Z,5460.00
2019-04-01T11:32:56.273Z,5480.00
2019-04-01T11:33:56.374Z,5472.00
2019-04-01T11:34:56.571Z,5508.00
2019-04-01T11:35:56.689Z,5472.00
2019-04-01T11:36:57.125Z,5468.00
2019-04-01T11:37:57.150Z,5464.00
2019-04-01T11:38:57.319Z,5468.00
2019-04-01T11:39:57.438Z,5452.00
2019-04-01T11:40:57.698Z,5452.00
2019-04-01T11:42:01.286Z,5464.00
2019-04-01T11:42:58.017Z,5464.00
2019-04-01T11:43:58.165Z,5472.00
2019-04-01T11:44:58.348Z,5512.00
2019-04-01T11:45:58.508Z,5472.00
2019-04-01T11:46:58.742Z,5484.00
2019-04-01T11:47:58.794Z,5472.00
2019-04-01T11:48:58.971Z,5492.00
2019-04-01T11:49:59.631Z,5488.00
2019-04-01T11:50:59.322Z,5504.00
2019-04-01T11:51:59.534Z,5504.00
2019-04-01T11:53:00.602Z,5496.00
2019-04-01T11:53:59.833Z,5488.00
2019-04-01T11:54:59.983Z,5528.00
2019-04-01T11:56:00.173Z,5516.00
2019-04-01T11:57:00.319Z,5500.00
2019-04-01T11:58:00.468Z,5516.00
2019-04-01T11:59:00.619Z,5520.00
2019-04-01T12:00:00.758Z,5492.00
2019-04-01T12:01:00.943Z,5500.00
2019-04-01T12:02:01.094Z,5508.00
2019-04-01T12:03:01.255Z,5508.00
2019-04-01T12:04:01.402Z,5484.00
2019-04-01T12:05:01.563Z,5484.00
2019-04-01T12:06:01.740Z,5484.00
2019-04-01T12:07:02.299Z,5468.00
2019-04-01T12:08:03.095Z,5484.00
2019-04-01T12:09:02.229Z,5484.00
2019-04-01T12:10:02.389Z,5492.00
2019-04-01T12:11:02.597Z,5480.00
2019-04-01T12:12:03.737Z,5472.00
2019-04-01T12:13:02.961Z,5452.00
2019-04-01T12:14:05.073Z,5440.00
2019-04-01T12:15:05.098Z,5452.00
2019-04-01T12:16:03.464Z,5456.00
2019-04-01T12:17:04.612Z,5424.00
2019-04-01T12:18:04.100Z,5444.00
2019-04-01T12:19:04.980Z,5432.00
2019-04-01T12:20:04.222Z,5436.00
2019-04-01T12:21:05.106Z,5436.00
2019-04-01T12:22:04.630Z,5436.00
2019-04-01T12:23:05.127Z,5440.00
2019-04-01T12:24:04.766Z,5428.00
2019-04-01T12:25:04.996Z,5440.00
2019-04-01T12:26:14.958Z,5428.00
2019-04-01T12:27:07.405Z,5428.00
2019-04-01T12:28:05.591Z,5424.00
2019-04-01T12:29:05.718Z,5448.00
2019-04-01T12:30:05.871Z,5432.00
2019-04-01T12:31:06.068Z,5436.00
2019-04-01T12:32:06.237Z,5428.00
2019-04-01T12:33:06.384Z,5412.00
2019-04-01T12:34:06.568Z,5396.00
2019-04-01T12:35:06.700Z,5416.00
2019-04-01T12:36:11.332Z,5408.00
2019-04-01T12:37:07.070Z,5396.00
2019-04-01T12:38:08.210Z,5392.00
2019-04-01T12:39:07.470Z,5392.00
2019-04-01T12:40:08.107Z,5416.00
2019-04-01T12:41:07.719Z,5388.00
2019-04-01T12:42:07.850Z,5360.00
2019-04-01T12:43:07.999Z,5364.00
2019-04-01T12:44:08.148Z,5360.00
2019-04-01T12:45:08.282Z,5372.00
2019-04-01T12:46:08.812Z,5356.00
2019-04-01T12:47:08.684Z,5352.00
2019-04-01T12:48:08.852Z,5348.00
2019-04-01T12:49:09.987Z,5316.00
2019-04-01T12:50:09.214Z,5316.00
2019-04-01T12:51:10.138Z,5320.00
2019-04-01T12:52:42.410Z,5296.00
2019-04-01T12:53:09.673Z,5288.00
2019-04-01T12:54:09.810Z,5276.00
2019-04-01T12:55:09.954Z,5288.00
2019-04-01T12:56:10.149Z,5264.00
2019-04-01T12:57:10.294Z,5272.00
2019-04-01T12:58:10.457Z,5280.00
2019-04-01T12:59:10.557Z,5292.00
2019-04-01T13:00:10.709Z,5268.00
2019-04-01T13:01:11.164Z,5252.00
2019-04-01T13:02:11.660Z,5236.00
2019-04-01T13:03:11.189Z,5272.00
2019-04-01T13:04:12.156Z,5236.00
2019-04-01T13:05:11.516Z,5240.00
2019-04-01T13:06:11.640Z,5220.00
2019-04-01T13:07:11.774Z,5216.00
2019-04-01T13:08:11.954Z,5212.00
2019-04-01T13:09:12.125Z,5212.00
2019-04-01T13:10:12.275Z,5224.00
2019-04-01T13:11:12.530Z,5208.00
2019-04-01T13:12:13.654Z,5212.00
2019-04-01T13:13:13.663Z,5200.00
2019-04-01T13:14:13.803Z,5200.00
2019-04-01T13:15:13.314Z,5212.00
2019-04-01T13:16:13.408Z,5208.00
2019-04-01T13:17:13.575Z,5188.00
2019-04-01T13:18:13.730Z,5196.00
2019-04-01T13:19:13.884Z,5180.00
2019-04-01T13:20:14.414Z,5172.00
2019-04-01T13:21:14.258Z,5200.00
2019-04-01T13:22:15.158Z,5168.00
2019-04-01T13:23:15.162Z,5148.00
2019-04-01T13:24:15.650Z,5148.00
2019-04-01T13:25:14.912Z,5156.00
2019-04-01T13:26:15.043Z,5132.00
2019-04-01T13:27:15.178Z,5108.00
2019-04-01T13:28:15.356Z,5104.00
2019-04-01T13:29:15.540Z,5060.00
2019-04-01T13:30:15.655Z,5124.00
2019-04-01T13:31:16.653Z,5076.00
2019-04-01T13:32:16.046Z,5064.00
2019-04-01T13:33:16.978Z,5080.00
2019-04-01T13:34:19.896Z,5076.00
2019-04-01T13:35:16.494Z,5084.00
2019-04-01T13:36:16.694Z,5040.00
2019-04-01T13:37:18.422Z,5056.00
2019-04-01T13:38:17.036Z,5040.00
2019-04-01T13:39:17.214Z,5024.00
2019-04-01T13:40:19.657Z,5036.00
2019-04-01T13:41:18.602Z,5016.00
2019-04-01T13:42:17.792Z,4984.00
2019-04-01T13:43:18.665Z,4984.00
2019-04-01T13:44:18.211Z,4980.00
2019-04-01T13:45:18.375Z,4984.00
2019-04-01T13:46:19.235Z,4968.00
2019-04-01T13:47:19.686Z,4960.00
2019-04-01T13:48:19.594Z,4960.00
2019-04-01T13:49:19.112Z,4996.00
2019-04-01T13:50:19.258Z,4952.00
2019-04-01T13:51:19.422Z,4928.00
2019-04-01T13:52:20.163Z,4928.00
2019-04-01T13:53:20.669Z,4924.00
2019-04-01T13:54:20.663Z,4924.00
2019-04-01T13:55:20.102Z,4920.00
2019-04-01T13:56:20.301Z,4916.00
2019-04-01T13:57:20.438Z,4928.00
2019-04-01T13:58:20.590Z,4892.00
2019-04-01T13:59:21.715Z,4896.00
2019-04-01T14:00:22.777Z,4868.00
2019-04-01T14:01:21.056Z,4896.00
2019-04-01T14:02:21.302Z,4900.00
2019-04-01T14:03:22.438Z,4880.00
2019-04-01T14:04:22.655Z,4860.00
2019-04-01T14:05:21.878Z,4804.00
2019-04-01T14:06:22.572Z,4824.00
2019-04-01T14:07:22.140Z,4824.00
2019-04-01T14:08:22.690Z,4808.00
2019-04-01T14:09:22.537Z,4812.00
2019-04-01T14:10:22.772Z,4816.00
2019-04-01T14:11:22.898Z,4800.00
2019-04-01T14:12:23.137Z,4796.00
2019-04-01T14:13:23.408Z,4752.00
2019-04-01T14:14:24.684Z,4776.00
2019-04-01T14:15:23.655Z,4764.00
2019-04-01T14:16:23.767Z,4776.00
2019-04-01T14:17:23.995Z,4764.00
2019-04-01T14:18:24.230Z,4764.00
2019-04-01T14:19:24.382Z,4748.00
2019-04-01T14:20:24.495Z,4748.00
2019-04-01T14:21:25.626Z,4752.00
2019-04-01T14:22:24.832Z,4728.00
2019-04-01T14:23:26.016Z,4744.00
2019-04-01T14:24:25.188Z,4720.00
2019-04-01T14:25:25.379Z,4712.00
2019-04-01T14:26:25.575Z,4676.00
2019-04-01T14:27:25.720Z,4684.00
2019-04-01T14:28:25.881Z,4680.00
2019-04-01T14:29:26.668Z,4672.00
2019-04-01T14:30:26.677Z,4672.00
2019-04-01T14:31:26.685Z,4660.00
2019-04-01T14:32:26.537Z,4644.00
2019-04-01T14:33:27.173Z,4644.00
2019-04-01T14:34:26.854Z,4652.00
2019-04-01T14:35:27.078Z,4616.00
2019-04-01T14:36:27.087Z,4592.00
2019-04-01T14:37:29.930Z,4600.00
2019-04-01T14:38:28.367Z,4596.00
2019-04-01T14:39:27.600Z,4592.00
2019-04-01T14:40:27.741Z,4612.00
2019-04-01T14:41:27.899Z,4576.00
2019-04-01T14:42:28.033Z,4544.00
2019-04-01T14:43:30.988Z,4560.00
2019-04-01T14:44:28.354Z,4540.00
2019-04-01T14:45:28.591Z,4540.00
2019-04-01T14:46:28.761Z,4512.00
2019-04-01T14:47:28.924Z,4500.00
2019-04-01T14:48:30.595Z,4484.00
2019-04-01T14:49:29.681Z,4476.00
2019-04-01T14:50:29.690Z,4468.00
2019-04-01T14:51:30.462Z,4488.00
2019-04-01T14:52:32.725Z,4460.00
2019-04-01T14:53:30.867Z,4472.00
2019-04-01T14:54:30.101Z,4452.00
2019-04-01T14:55:31.371Z,4452.00
2019-04-01T14:56:30.349Z,4428.00
2019-04-01T14:57:30.479Z,4432.00
2019-04-01T14:58:30.603Z,4432.00
2019-04-01T14:59:30.760Z,4404.00
2019-04-01T15:00:31.694Z,4380.00
2019-04-01T15:01:31.682Z,4384.00
2019-04-01T15:02:31.288Z,4400.00
2019-04-01T15:03:31.488Z,4352.00
2019-04-01T15:04:31.648Z,4340.00
2019-04-01T15:05:31.768Z,4352.00
2019-04-01T15:06:31.879Z,4340.00
2019-04-01T15:07:32.677Z,4340.00
2019-04-01T15:08:32.685Z,4320.00
2019-04-01T15:09:32.336Z,4304.00
2019-04-01T15:10:33.183Z,4312.00
2019-04-01T15:11:32.695Z,4304.00
2019-04-01T15:12:32.855Z,4312.00
2019-04-01T15:13:33.206Z,4280.00
2019-04-01T15:14:33.227Z,4300.00
2019-04-01T15:15:34.194Z,4248.00
2019-04-01T15:16:34.202Z,4260.00
2019-04-01T15:17:36.879Z,4244.00
2019-04-01T15:18:34.962Z,4212.00
2019-04-01T15:19:34.072Z,4188.00
2019-04-01T15:20:34.215Z,4176.00
2019-04-01T15:21:34.401Z,4172.00
2019-04-01T15:22:34.597Z,4164.00
2019-04-01T15:23:34.736Z,4148.00
2019-04-01T15:24:34.898Z,4132.00
2019-04-01T15:25:35.073Z,4124.00
2019-04-01T15:26:35.260Z,4112.00
2019-04-01T15:27:35.395Z,4092.00
2019-04-01T15:28:35.557Z,4080.00
2019-04-01T15:29:36.200Z,4056.00
2019-04-01T15:30:36.689Z,4048.00
2019-04-01T15:31:36.067Z,4004.00
2019-04-01T15:32:36.202Z,4012.00
2019-04-01T15:33:37.186Z,4012.00
2019-04-01T15:34:36.592Z,3996.00
2019-04-01T15:35:37.695Z,3996.00
2019-04-01T15:36:36.980Z,3968.00
2019-04-01T15:37:37.205Z,3952.00
2019-04-01T15:38:38.203Z,3944.00
2019-04-01T15:39:37.567Z,3912.00
2019-04-01T15:40:37.708Z,3904.00
2019-04-01T15:41:37.827Z,3892.00
2019-04-01T15:42:38.065Z,3896.00
2019-04-01T15:43:38.705Z,3880.00
2019-04-01T15:44:38.348Z,3856.00
2019-04-01T15:45:38.518Z,3856.00
2019-04-01T15:46:38.689Z,3844.00
2019-04-01T15:47:38.897Z,3812.00
2019-04-01T15:48:39.020Z,3804.00
2019-04-01T15:49:40.148Z,3792.00
2019-04-01T15:50:39.374Z,3776.00
2019-04-01T15:51:40.198Z,3756.00
2019-04-01T15:52:39.674Z,3732.00
2019-04-01T15:53:39.828Z,3720.00
2019-04-01T15:54:39.963Z,3708.00
2019-04-01T15:55:40.101Z,3684.00
2019-04-01T15:56:41.972Z,3664.00
2019-04-01T15:57:41.488Z,3660.00
2019-04-01T15:58:40.588Z,3644.00
2019-04-01T15:59:40.740Z,3636.00
2019-04-01T16:04:56.349Z,3556.00
2019-04-01T16:05:36.451Z,3532.00
2019-04-01T16:06:36.822Z,3520.00
2019-04-01T16:07:37.014Z,3484.00
2019-04-01T16:08:37.231Z,3472.00
2019-04-01T16:38:48.275Z,2788.00
2019-04-01T16:39:48.909Z,2764.00
2019-04-01T16:40:52.348Z,2744.00
2019-04-01T16:41:50.574Z,2712.00
2019-04-01T16:42:51.238Z,2684.00
2019-04-01T16:43:51.030Z,2656.00
2019-04-01T16:44:53.965Z,2624.00
2019-04-01T16:45:51.532Z,2600.00
2019-04-01T16:46:50.868Z,2568.00
2019-04-01T16:47:51.051Z,2548.00
2019-04-01T16:48:51.160Z,2512.00
2019-04-01T16:49:51.403Z,2484.00
2019-04-01T16:50:51.623Z,2464.00
2019-04-01T16:51:51.870Z,2428.00
2019-04-01T16:52:52.129Z,2396.00
2019-04-01T16:53:52.242Z,2368.00
2019-04-01T16:54:52.494Z,2336.00
2019-04-01T16:55:52.605Z,2296.00
2019-04-01T16:56:52.811Z,2264.00
2019-04-01T16:57:53.040Z,2232.00
2019-04-01T16:58:53.309Z,2196.00
2019-04-01T16:59:53.419Z,2160.00
2019-04-01T17:00:54.950Z,2136.00
2019-04-01T17:01:53.787Z,2116.00
2019-04-01T17:02:53.910Z,2076.00
2019-04-01T17:03:54.553Z,2044.00
2019-04-01T17:04:55.040Z,2012.00
2019-04-01T17:05:54.536Z,1976.00
2019-04-01T17:06:54.508Z,1940.00
2019-04-01T17:07:54.730Z,1908.00
2019-04-01T17:08:54.976Z,1868.00
2019-04-01T17:09:58.114Z,1828.00
2019-04-01T17:10:56.014Z,1792.00
2019-04-01T17:11:56.555Z,1760.00
2019-04-01T17:12:55.512Z,1724.00
2019-04-01T17:13:56.532Z,1920.00
2019-04-01T17:14:55.867Z,2024.00
2019-04-01T17:15:55.999Z,1712.00
2019-04-01T17:16:56.545Z,1576.00
2019-04-01T17:17:56.275Z,1540.00
2019-04-01T17:18:57.795Z,1504.00
2019-04-01T17:19:58.540Z,1472.00
2019-04-01T17:20:56.738Z,1436.00
2019-04-01T17:21:56.883Z,1396.00
2019-04-01T17:22:57.061Z,1360.00
2019-04-01T17:23:59.290Z,1320.00
2019-04-01T17:24:57.731Z,1288.00
2019-04-01T17:25:57.522Z,1248.00
2019-04-01T17:26:57.682Z,1208.00
2019-04-01T17:27:58.552Z,1172.00
2019-04-01T17:28:57.953Z,1132.00
2019-04-01T17:29:58.095Z,1096.00
2019-04-01T17:30:58.234Z,1060.00
2019-04-01T17:31:58.389Z,1020.00
2019-04-01T17:32:58.554Z,984.00
2019-04-01T17:33:59.055Z,952.00
2019-04-01T17:34:58.938Z,916.00
2019-04-01T17:35:59.063Z,880.00
2019-04-01T17:37:01.161Z,840.00
2019-04-01T17:38:01.075Z,804.00
2019-04-01T17:38:59.565Z,768.00
2019-04-01T17:39:59.701Z,732.00
2019-04-01T17:40:59.852Z,708.00
2019-04-01T17:41:59.981Z,692.00
2019-04-01T17:43:00.117Z,688.00
2019-04-01T17:44:00.254Z,696.00
2019-04-01T17:45:00.366Z,648.00
2019-04-01T17:46:00.484Z,612.00
2019-04-01T17:47:00.720Z,568.00
2019-04-01T17:48:01.554Z,508.00
2019-04-01T17:49:01.324Z,456.00
2019-04-01T17:50:01.519Z,420.00
2019-04-01T17:51:01.536Z,388.00
2019-04-01T17:52:04.203Z,364.00
2019-04-01T17:53:01.790Z,340.00
2019-04-01T17:54:01.922Z,316.00
2019-04-01T17:55:02.038Z,288.00
2019-04-01T17:56:02.582Z,268.00
2019-04-01T17:57:02.344Z,244.00
2019-04-01T17:58:02.476Z,220.00
2019-04-01T17:59:02.709Z,204.00
2019-04-01T18:00:02.858Z,184.00
2019-04-01T18:01:02.997Z,168.00
2019-04-01T18:02:03.109Z,152.00
2019-04-01T18:03:04.172Z,136.00
2019-04-01T18:04:04.060Z,120.00
2019-04-01T18:05:04.582Z,108.00
2019-04-01T18:06:04.063Z,92.00
2019-04-01T18:07:03.919Z,80.00
2019-04-01T18:08:04.994Z,72.00
2019-04-01T18:09:05.045Z,64.00
2019-04-01T18:10:04.498Z,56.00
2019-04-01T18:11:04.766Z,48.00
2019-04-01T18:12:05.560Z,44.00
2019-04-01T18:13:05.053Z,36.00
2019-04-01T18:14:06.047Z,32.00
2019-04-01T18:15:05.371Z,28.00
2019-04-01T18:16:05.595Z,24.00
2019-04-01T18:17:06.840Z,20.00
2019-04-01T18:18:06.076Z,20.00
2019-04-01T18:19:07.252Z,16.00
2019-04-01T18:20:06.342Z,16.00
2019-04-01T18:21:06.481Z,12.00
2019-04-01T18:22:09.975Z,12.00
2019-04-01T18:23:07.783Z,8.00
2019-04-01T18:24:06.990Z,12.00
2019-04-01T18:25:07.258Z,8.00
2019-04-01T18:26:08.075Z,12.00
2019-04-01T18:27:07.551Z,8.00
2019-04-01T18:28:07.700Z,8.00
2019-04-01T18:29:09.932Z,8.00
2019-04-01T18:30:07.965Z,8.00
2019-04-01T18:31:08.090Z,4.00
2019-04-01T18:32:08.576Z,8.00
2019-04-01T18:33:09.054Z,8.00
2019-04-01T18:34:08.627Z,8.00
2019-04-01T18:35:09.563Z,8.00
2019-04-01T18:36:08.919Z,8.00
2019-04-01T18:37:09.151Z,8.00
2019-04-01T18:38:09.272Z,8.00
2019-04-01T18:39:10.062Z,8.00
2019-04-01T18:40:09.538Z,8.00
2019-04-01T18:41:09.672Z,8.00
2019-04-01T18:42:10.580Z,4.00
2019-04-01T18:43:09.966Z,8.00
2019-04-01T18:44:10.109Z,8.00
2019-04-01T18:45:10.253Z,8.00
2019-04-01T18:46:10.424Z,8.00
2019-04-01T18:47:10.573Z,8.00
2019-04-01T18:48:14.289Z,8.00
2019-04-01T18:49:10.854Z,8.00
2019-04-01T18:50:11.557Z,8.00
2019-04-01T18:51:11.908Z,8.00
2019-04-01T18:52:11.307Z,8.00
2019-04-01T18:53:11.567Z,8.00
2019-04-01T18:54:11.785Z,8.00
2019-04-01T18:55:12.030Z,4.00
2019-04-01T18:56:12.261Z,8.00
2019-04-01T18:57:12.467Z,8.00
2019-04-01T18:58:12.733Z,8.00
2019-04-01T18:59:12.824Z,8.00
2019-04-01T19:00:13.053Z,4.00
2019-04-01T19:01:14.106Z,8.00
2019-04-01T19:02:13.593Z,8.00
2019-04-01T19:03:13.624Z,8.00
2019-04-01T19:04:14.086Z,8.00
2019-04-01T19:05:14.563Z,8.00
2019-04-01T19:06:14.159Z,4.00
2019-04-01T19:07:15.062Z,8.00
2019-04-01T19:08:14.411Z,8.00
2019-04-01T19:09:14.587Z,8.00
2019-04-01T19:10:14.700Z,8.00
2019-04-01T19:11:14.815Z,8.00
2019-04-01T19:12:14.945Z,8.00
2019-04-01T19:13:15.078Z,8.00
2019-04-01T19:14:15.602Z,8.00
2019-04-01T19:15:15.399Z,8.00
2019-04-01T19:16:16.837Z,8.00
2019-04-01T19:17:16.792Z,8.00
2019-04-01T19:18:15.910Z,8.00
2019-04-01T19:19:16.040Z,8.00
2019-04-01T19:20:16.178Z,8.00
2019-04-01T19:21:16.302Z,8.00
2019-04-01T19:22:16.569Z,8.00
2019-04-01T19:23:16.616Z,8.00
2019-04-01T19:24:16.743Z,8.00
2019-04-01T19:25:16.895Z,8.00
2019-04-01T19:26:17.575Z,8.00
2019-04-01T19:27:17.233Z,8.00
2019-04-01T19:28:18.485Z,8.00
2019-04-01T19:29:17.538Z,8.00
2019-04-01T19:30:17.661Z,8.00
2019-04-01T19:31:18.567Z,8.00
2019-04-01T19:32:18.075Z,8.00
2019-04-01T19:33:18.226Z,8.00
2019-04-01T19:34:18.359Z,8.00
2019-04-01T19:35:18.496Z,4.00
2019-04-01T19:36:18.677Z,4.00
2019-04-01T19:37:18.921Z,4.00
2019-04-01T19:38:21.342Z,8.00
2019-04-01T19:39:20.244Z,4.00
2019-04-01T19:40:20.690Z,8.00
2019-04-01T19:41:20.638Z,8.00
2019-04-01T19:42:20.580Z,8.00
2019-04-01T19:43:20.583Z,4.00
2019-04-01T19:44:20.588Z,8.00
2019-04-01T19:45:20.099Z,8.00
2019-04-01T19:46:20.231Z,8.00
2019-04-01T19:47:21.366Z,8.00
2019-04-01T19:48:22.571Z,8.00
2019-04-01T19:49:21.091Z,8.00
2019-04-01T19:50:21.564Z,0.00
2019-04-01T19:51:21.191Z,0.00
2019-04-01T19:52:21.349Z,0.00
2019-04-01T19:53:21.495Z,0.00
2019-04-01T19:54:30.859Z,0.00
2019-04-01T19:55:23.781Z,0.00
2019-04-01T19:56:21.981Z,0.00
2019-04-01T19:57:22.589Z,0.00
2019-04-01T19:58:22.582Z,0.00
2019-04-01T19:59:25.855Z,0.00
2019-04-01T20:00:28.019Z,0.00
2019-04-01T20:01:25.021Z,0.00
2019-04-01T20:02:24.572Z,0.00
2019-04-01T20:03:25.363Z,0.00
2019-04-01T20:04:25.075Z,0.00
2019-04-01T20:05:23.573Z,0.00
2019-04-01T20:06:23.742Z,0.00
2019-04-01T20:07:23.934Z,0.00
2019-04-01T20:08:25.078Z,0.00
2019-04-01T20:09:24.383Z,0.00
2019-04-01T20:10:24.539Z,0.00
2019-04-01T20:11:24.698Z,0.00
2019-04-01T20:12:24.846Z,0.00
2019-04-01T20:13:25.023Z,0.00
2019-04-01T20:14:25.584Z,0.00
2019-04-01T20:15:26.075Z,0.00
2019-04-01T20:16:25.587Z,0.00
2019-04-01T20:17:25.781Z,0.00
2019-04-01T20:18:26.577Z,0.00
2019-04-01T20:19:26.588Z,0.00
2019-04-01T20:20:26.250Z,0.00
2019-04-01T20:21:28.105Z,0.00
2019-04-01T20:22:26.596Z,0.00
2019-04-01T20:23:26.775Z,0.00
2019-04-01T20:24:26.917Z,0.00
2019-04-01T20:25:27.098Z,0.00
2019-04-01T20:26:27.276Z,0.00
2019-04-01T20:27:28.103Z,0.00
2019-04-01T20:28:28.590Z,0.00
2019-04-01T20:29:30.318Z,0.00
2019-04-01T20:30:29.575Z,0.00
2019-04-01T20:31:28.245Z,0.00
2019-04-01T20:32:29.083Z,0.00
2019-04-01T20:33:31.648Z,0.00
2019-04-01T20:34:31.949Z,0.00
2019-04-01T20:35:29.066Z,0.00
2019-04-01T20:36:31.311Z,0.00
2019-04-01T20:37:29.621Z,0.00
2019-04-01T20:38:30.581Z,0.00
2019-04-01T20:39:30.584Z,0.00
2019-04-01T20:40:30.595Z,0.00
2019-04-01T20:41:30.597Z,0.00
2019-04-01T20:42:30.253Z,0.00
2019-04-01T20:43:30.418Z,0.00
2019-04-01T20:44:30.587Z,0.00
2019-04-01T20:45:31.590Z,0.00
2019-04-01T20:46:30.979Z,0.00
2019-04-01T20:47:31.131Z,0.00
2019-04-01T20:48:53.988Z,0.00
2019-04-01T20:49:32.429Z,0.00
2019-04-01T20:50:31.541Z,0.00
2019-04-01T20:51:32.583Z,0.00
2019-04-01T20:52:32.581Z,0.00
2019-04-01T20:53:32.093Z,0.00
2019-04-01T20:54:33.091Z,0.00
2019-04-01T20:55:32.459Z,0.00
2019-04-01T20:56:33.594Z,0.00
2019-04-01T20:57:32.815Z,0.00
2019-04-01T20:58:32.990Z,0.00
2019-04-01T20:59:33.143Z,0.00
2019-04-01T21:00:34.096Z,0.00
2019-04-01T21:01:35.172Z,0.00
2019-04-01T21:02:34.594Z,0.00
2019-04-01T21:03:33.834Z,0.00
2019-04-01T21:04:34.014Z,0.00
2019-04-01T21:05:34.173Z,0.00
2019-04-01T21:06:34.327Z,0.00
2019-04-01T21:07:34.475Z,0.00
2019-04-01T21:08:34.639Z,0.00
2019-04-01T21:09:34.786Z,0.00
2019-04-01T21:10:35.091Z,0.00
2019-04-01T21:11:35.122Z,0.00
2019-04-01T21:12:36.147Z,0.00
2019-04-01T21:13:35.523Z,0.00
2019-04-01T21:14:35.535Z,0.00
2019-04-01T21:15:35.689Z,0.00
2019-04-01T21:16:36.591Z,0.00
2019-04-01T21:17:36.019Z,0.00
2019-04-01T21:18:36.170Z,0.00
2019-04-01T21:19:36.326Z,0.00
2019-04-01T21:20:36.468Z,0.00
2019-04-01T21:21:36.650Z,0.00
2019-04-01T21:22:37.294Z,0.00
2019-04-01T21:23:37.001Z,0.00
2019-04-01T21:24:38.122Z,0.00
2019-04-01T21:25:38.096Z,0.00
2019-04-01T21:26:37.602Z,0.00
2019-04-01T21:27:38.593Z,0.00
2019-04-01T21:28:37.951Z,0.00
2019-04-01T21:29:38.601Z,0.00
2019-04-01T21:30:39.096Z,0.00
2019-04-01T21:31:38.481Z,0.00
2019-04-01T21:32:38.650Z,0.00
2019-04-01T21:33:38.775Z,0.00
2019-04-01T21:34:40.080Z,0.00
2019-04-01T21:35:39.155Z,0.00
2019-04-01T21:36:39.382Z,0.00
2019-04-01T21:37:40.603Z,0.00
2019-04-01T21:38:39.729Z,0.00
2019-04-01T21:39:40.588Z,0.00
2019-04-01T21:40:40.044Z,0.00
2019-04-01T21:41:40.180Z,0.00
2019-04-01T21:42:43.048Z,0.00
2019-04-01T21:43:41.598Z,0.00
2019-04-01T21:44:40.833Z,0.00
2019-04-01T21:45:40.960Z,0.00
2019-04-01T21:46:41.085Z,0.00
2019-04-01T21:47:41.677Z,0.00
2019-04-01T21:48:41.460Z,0.00
2019-04-01T21:49:41.605Z,0.00
2019-04-01T21:50:41.754Z,0.00
2019-04-01T21:51:41.883Z,0.00
2019-04-01T21:52:43.103Z,0.00
2019-04-01T21:53:42.225Z,0.00
2019-04-01T21:54:42.610Z,0.00
2019-04-01T21:55:42.612Z,0.00
2019-04-01T21:56:42.774Z,0.00
2019-04-01T21:57:42.939Z,0.00
2019-04-01T21:58:43.098Z,0.00
2019-04-01T21:59:43.259Z,0.00
2019-04-01T22:00:43.491Z,0.00
2019-04-01T22:01:43.543Z,0.00
2019-04-01T22:02:44.092Z,0.00
2019-04-01T22:03:45.597Z,0.00
2019-04-01T22:04:44.084Z,0.00
2019-04-01T22:05:44.259Z,0.00
2019-04-01T22:06:44.429Z,0.00
2019-04-01T22:07:45.099Z,0.00
2019-04-01T22:08:45.590Z,0.00
2019-04-01T22:09:44.894Z,0.00
2019-04-01T22:10:45.065Z,0.00
2019-04-01T22:11:45.607Z,0.00
2019-04-01T22:12:46.093Z,0.00
2019-04-01T22:13:46.647Z,0.00
2019-04-01T22:14:46.124Z,0.00
2019-04-01T22:15:46.601Z,0.00
2019-04-01T22:16:46.102Z,0.00
2019-04-01T22:17:46.392Z,0.00
2019-04-01T22:18:46.438Z,0.00
2019-04-01T22:19:46.612Z,0.00
2019-04-01T22:20:46.812Z,0.00
2019-04-01T22:21:47.595Z,0.00
2019-04-01T22:22:47.603Z,0.00
2019-04-01T22:23:47.221Z,0.00
2019-04-01T22:24:47.407Z,0.00
2019-04-01T22:25:47.621Z,0.00
2019-04-01T22:26:47.780Z,0.00
2019-04-01T22:27:48.616Z,0.00
2019-04-01T22:28:48.104Z,0.00
2019-04-01T22:29:48.930Z,0.00
2019-04-01T22:30:48.612Z,0.00
2019-04-01T22:31:49.600Z,0.00
2019-04-01T22:32:48.874Z,0.00
2019-04-01T22:33:48.994Z,0.00
2019-04-01T22:34:49.129Z,0.00
2019-04-01T22:35:50.108Z,0.00
2019-04-01T22:36:49.460Z,0.00
2019-04-01T22:37:49.619Z,0.00
2019-04-01T22:38:50.111Z,0.00
2019-04-01T22:39:50.010Z,0.00
2019-04-01T22:40:50.178Z,0.00
2019-04-01T22:41:50.296Z,0.00
2019-04-01T22:42:50.425Z,0.00
2019-04-01T22:43:50.583Z,0.00
2019-04-01T22:44:52.068Z,0.00
2019-04-01T22:45:50.864Z,0.00
2019-04-01T22:46:50.987Z,0.00